createdAt,value
2017-08-14T00:00:16.652Z,15.44
2017-08-14T00:01:13.909Z,15.45
2017-08-14T00:02:11.123Z,15.43
2017-08-14T00:03:08.369Z,15.42
2017-08-14T00:04:05.600Z,15.42
2017-08-14T00:05:02.826Z,15.39
2017-08-14T00:06:00.084Z,15.39
2017-08-14T00:06:57.311Z,15.38
2017-08-14T00:07:54.542Z,15.35
2017-08-14T00:08:51.773Z,15.34
2017-08-14T00:09:48.988Z,15.34
2017-08-14T00:10:46.259Z,15.33
2017-08-14T00:11:43.531Z,15.31
2017-08-14T00:12:40.768Z,15.31
2017-08-14T00:13:37.980Z,15.29
2017-08-14T00:14:35.224Z,15.28
2017-08-14T00:15:32.441Z,15.26
2017-08-14T00:16:29.693Z,15.26
2017-08-14T00:17:26.910Z,15.24
2017-08-14T00:18:24.143Z,15.24
2017-08-14T00:19:21.377Z,15.22
2017-08-14T00:20:18.621Z,15.22
2017-08-14T00:21:15.841Z,15.20
2017-08-14T00:22:13.104Z,15.18
2017-08-14T00:23:10.346Z,15.19
2017-08-14T00:24:07.580Z,15.16
2017-08-14T00:25:04.813Z,15.16
2017-08-14T00:26:02.052Z,15.15
2017-08-14T00:26:59.295Z,15.12
2017-08-14T00:27:56.529Z,15.12
2017-08-14T00:28:53.756Z,15.11
2017-08-14T00:29:51.011Z,15.10
2017-08-14T00:30:48.220Z,15.10
2017-08-14T00:31:45.536Z,15.09
2017-08-14T00:32:42.756Z,15.08
2017-08-14T00:33:40.029Z,15.07
2017-08-14T00:34:37.257Z,15.05
2017-08-14T00:35:34.501Z,15.05
2017-08-14T00:36:31.720Z,15.03
2017-08-14T00:37:28.993Z,15.01
2017-08-14T00:38:26.212Z,14.99
2017-08-14T00:39:23.457Z,14.99
2017-08-14T00:40:20.659Z,14.98
2017-08-14T00:41:17.917Z,14.98
2017-08-14T00:42:15.156Z,14.96
2017-08-14T00:43:12.394Z,14.95
2017-08-14T00:44:09.623Z,14.93
2017-08-14T00:45:06.864Z,14.93
2017-08-14T00:46:04.087Z,14.92
2017-08-14T00:47:01.373Z,14.91
2017-08-14T00:47:58.604Z,14.90
2017-08-14T00:48:55.854Z,14.89
2017-08-14T00:49:53.073Z,14.88
2017-08-14T00:50:50.293Z,14.87
2017-08-14T00:51:47.515Z,14.86
2017-08-14T00:52:44.780Z,14.85
2017-08-14T00:53:41.988Z,14.83
2017-08-14T00:54:39.231Z,14.81
2017-08-14T00:55:36.457Z,14.81
2017-08-14T00:56:33.692Z,14.81
2017-08-14T00:57:30.919Z,14.79
2017-08-14T00:58:28.172Z,14.78
2017-08-14T00:59:25.389Z,14.77
2017-08-14T01:00:22.628Z,14.76
2017-08-14T01:01:19.840Z,14.74
2017-08-14T01:02:17.103Z,14.75
2017-08-14T01:03:14.324Z,14.73
2017-08-14T01:04:11.568Z,14.72
2017-08-14T01:05:08.781Z,14.70
2017-08-14T01:06:06.027Z,14.70
2017-08-14T01:07:03.236Z,14.68
2017-08-14T01:08:00.497Z,14.67
2017-08-14T01:08:57.712Z,14.66
2017-08-14T01:09:54.958Z,14.66
2017-08-14T01:10:52.179Z,14.65
2017-08-14T01:11:49.425Z,14.65
2017-08-14T01:12:46.664Z,14.62
2017-08-14T01:13:43.896Z,14.62
2017-08-14T01:14:41.116Z,14.62
2017-08-14T01:15:38.363Z,14.61
2017-08-14T01:16:35.576Z,14.60
2017-08-14T01:17:32.821Z,14.59
2017-08-14T01:18:30.052Z,14.58
2017-08-14T01:19:27.295Z,14.57
2017-08-14T01:20:24.514Z,14.56
2017-08-14T01:21:21.765Z,14.55
2017-08-14T01:22:18.997Z,14.54
2017-08-14T01:23:16.253Z,14.53
2017-08-14T01:24:13.468Z,14.52
2017-08-14T01:25:10.699Z,14.50
2017-08-14T01:26:07.917Z,14.50
2017-08-14T01:27:05.162Z,14.49
2017-08-14T01:28:02.396Z,14.48
2017-08-14T01:28:59.637Z,14.47
2017-08-14T01:29:56.856Z,14.47
2017-08-14T01:30:54.096Z,14.45
2017-08-14T01:31:51.324Z,14.42
2017-08-14T01:32:48.572Z,14.42
2017-08-14T01:33:45.815Z,14.41
2017-08-14T01:34:43.056Z,14.41
2017-08-14T01:35:40.280Z,14.40
2017-08-14T01:36:37.521Z,14.38
2017-08-14T01:37:34.733Z,14.38
2017-08-14T01:38:31.988Z,14.37
2017-08-14T01:39:29.198Z,14.36
2017-08-14T01:40:26.438Z,14.34
2017-08-14T01:41:23.640Z,14.34
2017-08-14T01:42:20.892Z,14.33
2017-08-14T01:43:18.149Z,14.32
2017-08-14T01:44:15.377Z,14.31
2017-08-14T01:45:12.584Z,14.30
2017-08-14T01:46:09.812Z,14.30
2017-08-14T01:47:07.035Z,14.28
2017-08-14T01:48:04.275Z,14.27
2017-08-14T01:49:01.515Z,14.27
2017-08-14T01:49:58.745Z,14.24
2017-08-14T01:50:55.948Z,14.25
2017-08-14T01:51:53.184Z,14.22
2017-08-14T01:52:50.411Z,14.21
2017-08-14T01:53:47.671Z,14.20
2017-08-14T01:54:44.884Z,14.20
2017-08-14T01:55:42.121Z,14.20
2017-08-14T01:56:39.348Z,14.19
2017-08-14T01:57:36.603Z,14.17
2017-08-14T01:58:33.853Z,14.16
2017-08-14T01:59:31.068Z,14.15
2017-08-14T02:00:28.280Z,14.15
2017-08-14T02:01:25.507Z,14.14
2017-08-14T02:02:22.739Z,14.13
2017-08-14T02:03:19.979Z,14.12
2017-08-14T02:04:17.236Z,14.11
2017-08-14T02:05:14.468Z,14.09
2017-08-14T02:06:11.696Z,14.08
2017-08-14T02:07:08.953Z,14.07
2017-08-14T02:08:06.175Z,14.06
2017-08-14T02:09:03.448Z,14.07
2017-08-14T02:10:00.675Z,14.06
2017-08-14T02:10:57.944Z,14.05
2017-08-14T02:11:55.182Z,14.03
2017-08-14T02:12:52.528Z,14.02
2017-08-14T02:13:49.756Z,14.00
2017-08-14T02:14:47.016Z,14.01
2017-08-14T02:15:44.244Z,14.00
2017-08-14T02:16:41.481Z,13.99
2017-08-14T02:17:38.717Z,13.98
2017-08-14T02:18:35.952Z,13.97
2017-08-14T02:19:33.202Z,13.95
2017-08-14T02:20:30.461Z,13.93
2017-08-14T02:21:27.680Z,13.94
2017-08-14T02:22:24.922Z,13.94
2017-08-14T02:23:22.148Z,13.93
2017-08-14T02:24:19.408Z,13.91
2017-08-14T02:25:16.641Z,13.90
2017-08-14T02:26:13.892Z,13.90
2017-08-14T02:27:11.112Z,13.88
2017-08-14T02:28:08.353Z,13.89
2017-08-14T02:29:05.597Z,13.87
2017-08-14T02:30:02.856Z,13.87
2017-08-14T02:31:00.093Z,13.85
2017-08-14T02:31:57.337Z,13.85
2017-08-14T02:32:54.564Z,13.83
2017-08-14T02:33:51.803Z,13.81
2017-08-14T02:34:49.049Z,13.81
2017-08-14T02:35:46.298Z,13.81
2017-08-14T02:36:43.540Z,13.80
2017-08-14T02:37:40.773Z,13.78
2017-08-14T02:38:37.995Z,13.78
2017-08-14T02:39:35.236Z,13.78
2017-08-14T02:40:32.475Z,13.75
2017-08-14T02:41:29.718Z,13.75
2017-08-14T02:42:26.944Z,13.75
2017-08-14T02:43:24.180Z,13.73
2017-08-14T02:44:21.412Z,13.72
2017-08-14T02:45:18.672Z,13.72
2017-08-14T02:46:15.900Z,13.71
2017-08-14T02:47:13.150Z,13.69
2017-08-14T02:48:10.353Z,13.69
2017-08-14T02:49:07.591Z,13.69
2017-08-14T02:50:04.836Z,13.67
2017-08-14T02:51:02.077Z,13.66
2017-08-14T02:51:59.312Z,13.65
2017-08-14T02:52:56.550Z,13.65
2017-08-14T02:53:53.776Z,13.63
2017-08-14T02:54:51.019Z,13.63
2017-08-14T02:55:48.272Z,13.61
2017-08-14T02:56:45.514Z,13.60
2017-08-14T02:57:42.720Z,13.61
2017-08-14T02:58:39.970Z,13.59
2017-08-14T02:59:37.188Z,13.60
2017-08-14T03:00:34.448Z,13.58
2017-08-14T03:01:31.676Z,13.57
2017-08-14T03:02:28.908Z,13.56
2017-08-14T03:03:26.125Z,13.56
2017-08-14T03:04:23.362Z,13.55
2017-08-14T03:05:20.609Z,13.54
2017-08-14T03:06:17.860Z,13.53
2017-08-14T03:07:15.087Z,13.52
2017-08-14T03:08:12.315Z,13.51
2017-08-14T03:09:09.539Z,13.50
2017-08-14T03:10:06.784Z,13.51
2017-08-14T03:11:04.028Z,13.50
2017-08-14T03:12:01.272Z,13.49
2017-08-14T03:12:58.495Z,13.48
2017-08-14T03:13:55.728Z,13.47
2017-08-14T03:14:52.935Z,13.46
2017-08-14T03:15:50.185Z,13.45
2017-08-14T03:16:47.402Z,13.45
2017-08-14T03:17:44.659Z,13.44
2017-08-14T03:18:41.900Z,13.41
2017-08-14T03:19:39.139Z,13.41
2017-08-14T03:20:36.365Z,13.41
2017-08-14T03:21:33.625Z,13.39
2017-08-14T03:22:30.863Z,13.39
2017-08-14T03:23:28.104Z,13.39
2017-08-14T03:24:25.318Z,13.38
2017-08-14T03:25:22.561Z,13.36
2017-08-14T03:26:19.802Z,13.36
2017-08-14T03:27:17.047Z,13.36
2017-08-14T03:28:14.276Z,13.35
2017-08-14T03:29:11.516Z,13.34
2017-08-14T03:30:08.754Z,13.33
2017-08-14T03:31:06.020Z,13.32
2017-08-14T03:32:03.252Z,13.33
2017-08-14T03:33:00.605Z,13.31
2017-08-14T03:33:57.817Z,13.32
2017-08-14T03:34:55.060Z,13.30
2017-08-14T03:35:52.288Z,13.29
2017-08-14T03:36:49.557Z,13.29
2017-08-14T03:37:46.776Z,13.27
2017-08-14T03:38:44.016Z,13.26
2017-08-14T03:39:41.245Z,13.26
2017-08-14T03:40:38.489Z,13.25
2017-08-14T03:41:35.736Z,13.25
2017-08-14T03:42:32.985Z,13.23
2017-08-14T03:43:30.199Z,13.22
2017-08-14T03:44:27.440Z,13.21
2017-08-14T03:45:24.656Z,13.22
2017-08-14T03:46:21.928Z,13.20
2017-08-14T03:47:19.132Z,13.20
2017-08-14T03:48:16.389Z,13.19
2017-08-14T03:49:13.612Z,13.18
2017-08-14T03:50:10.864Z,13.17
2017-08-14T03:51:08.089Z,13.17
2017-08-14T03:52:05.340Z,13.17
2017-08-14T03:53:02.570Z,13.15
2017-08-14T03:53:59.815Z,13.15
2017-08-14T03:54:57.025Z,13.13
2017-08-14T03:55:54.271Z,13.13
2017-08-14T03:56:51.505Z,13.11
2017-08-14T03:57:48.731Z,13.13
2017-08-14T03:58:45.971Z,13.10
2017-08-14T03:59:43.224Z,13.09
2017-08-14T04:00:40.446Z,13.08
2017-08-14T04:01:37.707Z,13.09
2017-08-14T04:02:34.929Z,13.07
2017-08-14T04:03:32.203Z,13.06
2017-08-14T04:04:29.417Z,13.06
2017-08-14T04:05:26.671Z,13.06
2017-08-14T04:06:23.888Z,13.04
2017-08-14T04:07:21.143Z,13.03
2017-08-14T04:08:18.361Z,13.02
2017-08-14T04:09:15.589Z,13.01
2017-08-14T04:10:12.808Z,13.00
2017-08-14T04:11:10.033Z,12.99
2017-08-14T04:12:07.263Z,13.00
2017-08-14T04:13:04.484Z,12.98
2017-08-14T04:14:01.700Z,12.98
2017-08-14T04:14:58.941Z,12.97
2017-08-14T04:15:56.166Z,12.98
2017-08-14T04:16:53.424Z,12.97
2017-08-14T04:17:50.672Z,12.97
2017-08-14T04:18:47.900Z,12.94
2017-08-14T04:19:45.128Z,12.95
2017-08-14T04:20:42.360Z,12.93
2017-08-14T04:21:39.576Z,12.92
2017-08-14T04:22:36.836Z,12.92
2017-08-14T04:23:34.052Z,12.91
2017-08-14T04:24:31.309Z,12.91
2017-08-14T04:25:28.520Z,12.90
2017-08-14T04:26:25.814Z,12.89
2017-08-14T04:27:23.100Z,12.89
2017-08-14T04:28:20.372Z,12.87
2017-08-14T04:29:17.596Z,12.87
2017-08-14T04:30:14.876Z,12.86
2017-08-14T04:31:12.148Z,12.86
2017-08-14T04:32:09.377Z,12.85
2017-08-14T04:33:06.610Z,12.84
2017-08-14T04:34:03.865Z,12.84
2017-08-14T04:35:01.064Z,12.83
2017-08-14T04:35:58.327Z,12.83
2017-08-14T04:36:55.548Z,12.81
2017-08-14T04:37:52.800Z,12.82
2017-08-14T04:38:50.024Z,12.80
2017-08-14T04:39:47.257Z,12.80
2017-08-14T04:40:44.472Z,12.79
2017-08-14T04:41:41.704Z,12.78
2017-08-14T04:42:38.934Z,12.78
2017-08-14T04:43:36.174Z,12.75
2017-08-14T04:44:33.408Z,12.76
2017-08-14T04:45:30.637Z,12.75
2017-08-14T04:46:27.860Z,12.74
2017-08-14T04:47:25.089Z,12.73
2017-08-14T04:48:22.324Z,12.73
2017-08-14T04:49:19.548Z,12.71
2017-08-14T04:50:16.764Z,12.71
2017-08-14T04:51:13.984Z,12.71
2017-08-14T04:52:11.196Z,12.70
2017-08-14T04:53:08.466Z,12.71
2017-08-14T04:54:05.684Z,12.70
2017-08-14T04:55:02.938Z,12.69
2017-08-14T04:56:00.177Z,12.68
2017-08-14T04:56:57.417Z,12.69
2017-08-14T04:57:54.671Z,12.67
2017-08-14T04:58:51.900Z,12.68
2017-08-14T04:59:49.123Z,12.66
2017-08-14T05:00:46.352Z,12.65
2017-08-14T05:01:43.580Z,12.66
2017-08-14T05:02:40.825Z,12.65
2017-08-14T05:03:38.068Z,12.63
2017-08-14T05:04:35.300Z,12.62
2017-08-14T05:05:32.509Z,12.62
2017-08-14T05:06:29.728Z,12.61
2017-08-14T05:07:26.943Z,12.61
2017-08-14T05:08:24.212Z,12.60
2017-08-14T05:09:21.424Z,12.60
2017-08-14T05:10:18.679Z,12.59
2017-08-14T05:11:15.893Z,12.59
2017-08-14T05:12:13.132Z,12.59
2017-08-14T05:13:10.344Z,12.58
2017-08-14T05:14:07.596Z,12.57
2017-08-14T05:15:04.808Z,12.57
2017-08-14T05:16:02.049Z,12.56
2017-08-14T05:16:59.283Z,12.55
2017-08-14T05:17:56.520Z,12.55
2017-08-14T05:18:53.757Z,12.55
2017-08-14T05:19:50.984Z,12.54
2017-08-14T05:20:48.207Z,12.53
2017-08-14T05:21:45.445Z,12.54
2017-08-14T05:22:42.657Z,12.54
2017-08-14T05:23:39.960Z,12.53
2017-08-14T05:24:37.181Z,12.52
2017-08-14T05:25:34.432Z,12.52
2017-08-14T05:26:31.658Z,12.53
2017-08-14T05:27:28.891Z,12.50
2017-08-14T05:28:26.104Z,12.51
2017-08-14T05:29:23.379Z,12.50
2017-08-14T05:30:20.597Z,12.51
2017-08-14T05:31:17.863Z,12.49
2017-08-14T05:32:15.109Z,12.50
2017-08-14T05:33:12.349Z,12.48
2017-08-14T05:34:09.580Z,12.49
2017-08-14T05:35:06.828Z,12.49
2017-08-14T05:36:04.056Z,12.48
2017-08-14T05:37:01.293Z,12.49
2017-08-14T05:37:58.516Z,12.48
2017-08-14T05:38:55.740Z,12.49
2017-08-14T05:39:52.968Z,12.48
2017-08-14T05:40:50.300Z,12.48
2017-08-14T05:41:48.064Z,12.48
2017-08-14T05:42:45.321Z,12.47
2017-08-14T05:43:42.549Z,12.48
2017-08-14T05:44:39.817Z,12.47
2017-08-14T05:45:37.052Z,12.48
2017-08-14T05:46:34.309Z,12.47
2017-08-14T05:47:31.528Z,12.47
2017-08-14T05:48:28.784Z,12.48
2017-08-14T05:49:26.036Z,12.45
2017-08-14T05:50:23.288Z,12.47
2017-08-14T05:51:20.525Z,12.47
2017-08-14T05:52:17.802Z,12.46
2017-08-14T05:53:15.020Z,12.46
2017-08-14T05:54:12.251Z,12.46
2017-08-14T05:55:09.495Z,12.46
2017-08-14T05:56:06.735Z,12.46
2017-08-14T05:57:03.957Z,12.47
2017-08-14T05:58:01.200Z,12.47
2017-08-14T05:58:58.411Z,12.48
2017-08-14T05:59:55.652Z,12.48
2017-08-14T06:00:52.871Z,12.45
2017-08-14T06:01:50.104Z,12.48
2017-08-14T06:02:47.344Z,12.49
2017-08-14T06:03:44.608Z,12.48
2017-08-14T06:04:43.940Z,12.46
2017-08-14T06:05:41.144Z,12.47
2017-08-14T06:06:38.382Z,12.48
2017-08-14T06:07:35.588Z,12.48
2017-08-14T06:08:32.828Z,12.48
2017-08-14T06:09:30.036Z,12.48
2017-08-14T06:10:27.311Z,12.48
2017-08-14T06:11:24.524Z,12.49
2017-08-14T06:12:21.763Z,12.50
2017-08-14T06:13:18.976Z,12.48
2017-08-14T06:14:16.208Z,12.49
2017-08-14T06:15:13.444Z,12.51
2017-08-14T06:16:10.695Z,12.48
2017-08-14T06:17:07.938Z,12.50
2017-08-14T06:18:05.173Z,12.50
2017-08-14T06:19:02.380Z,12.51
2017-08-14T06:19:59.723Z,12.51
2017-08-14T06:20:56.948Z,12.50
2017-08-14T06:21:54.176Z,12.52
2017-08-14T06:22:51.413Z,12.50
2017-08-14T06:23:48.644Z,12.53
2017-08-14T06:24:45.868Z,12.53
2017-08-14T06:25:43.138Z,12.53
2017-08-14T06:26:40.352Z,12.53
2017-08-14T06:27:37.681Z,12.53
2017-08-14T06:28:34.879Z,12.54
2017-08-14T06:29:32.105Z,12.55
2017-08-14T06:30:29.341Z,12.55
2017-08-14T06:31:26.578Z,12.56
2017-08-14T06:32:23.796Z,12.57
2017-08-14T06:33:21.028Z,12.57
2017-08-14T06:34:18.244Z,12.57
2017-08-14T06:35:15.506Z,12.57
2017-08-14T06:36:12.740Z,12.58
2017-08-14T06:37:10.064Z,12.58
2017-08-14T06:38:08.054Z,12.59
2017-08-14T06:39:05.292Z,12.59
2017-08-14T06:40:02.504Z,12.60
2017-08-14T06:40:59.753Z,12.61
2017-08-14T06:41:56.967Z,12.62
2017-08-14T06:42:54.199Z,12.62
2017-08-14T06:43:51.412Z,12.63
2017-08-14T06:44:48.662Z,12.63
2017-08-14T06:45:45.908Z,12.65
2017-08-14T06:46:43.133Z,12.65
2017-08-14T06:47:40.364Z,12.67
2017-08-14T06:48:37.592Z,12.66
2017-08-14T06:49:34.811Z,12.68
2017-08-14T06:50:32.035Z,12.69
2017-08-14T06:51:29.270Z,12.69
2017-08-14T06:52:26.517Z,12.68
2017-08-14T06:53:23.781Z,12.71
2017-08-14T06:54:21.012Z,12.71
2017-08-14T06:55:18.240Z,12.72
2017-08-14T06:56:15.489Z,12.72
2017-08-14T06:57:12.703Z,12.73
2017-08-14T06:58:09.941Z,12.74
2017-08-14T06:59:07.272Z,12.75
2017-08-14T07:00:04.508Z,12.75
2017-08-14T07:01:01.756Z,12.76
2017-08-14T07:01:59.008Z,12.79
2017-08-14T07:02:56.231Z,12.78
2017-08-14T07:03:53.472Z,12.79
2017-08-14T07:04:50.680Z,12.80
2017-08-14T07:05:47.905Z,12.81
2017-08-14T07:06:45.145Z,12.81
2017-08-14T07:07:42.464Z,12.83
2017-08-14T07:08:39.701Z,12.84
2017-08-14T07:09:36.946Z,12.85
2017-08-14T07:10:34.163Z,12.87
2017-08-14T07:11:31.416Z,12.87
2017-08-14T07:12:28.669Z,12.89
2017-08-14T07:13:25.912Z,12.89
2017-08-14T07:14:23.140Z,12.89
2017-08-14T07:15:20.392Z,12.91
2017-08-14T07:16:17.636Z,12.92
2017-08-14T07:17:14.872Z,12.93
2017-08-14T07:18:12.100Z,12.94
2017-08-14T07:19:09.335Z,12.95
2017-08-14T07:20:06.552Z,12.96
2017-08-14T07:21:03.808Z,12.98
2017-08-14T07:22:01.044Z,12.98
2017-08-14T07:22:58.269Z,12.99
2017-08-14T07:23:55.506Z,13.02
2017-08-14T07:24:52.741Z,13.03
2017-08-14T07:25:49.980Z,13.04
2017-08-14T07:26:47.250Z,13.05
2017-08-14T07:27:44.472Z,13.05
2017-08-14T07:28:41.727Z,13.06
2017-08-14T07:29:38.964Z,13.09
2017-08-14T07:30:36.222Z,13.09
2017-08-14T07:31:33.432Z,13.13
2017-08-14T07:32:30.689Z,13.14
2017-08-14T07:33:27.904Z,13.15
2017-08-14T07:34:25.132Z,13.15
2017-08-14T07:35:22.365Z,13.18
2017-08-14T07:36:19.612Z,13.20
2017-08-14T07:37:16.872Z,13.20
2017-08-14T07:38:14.120Z,13.21
2017-08-14T07:39:11.344Z,13.23
2017-08-14T07:40:08.588Z,13.26
2017-08-14T07:41:05.836Z,13.26
2017-08-14T07:42:03.109Z,13.27
2017-08-14T07:43:00.328Z,13.29
2017-08-14T07:43:57.592Z,13.31
2017-08-14T07:44:54.828Z,13.31
2017-08-14T07:45:52.105Z,13.34
2017-08-14T07:46:49.352Z,13.35
2017-08-14T07:47:46.617Z,13.36
2017-08-14T07:48:43.831Z,13.38
2017-08-14T07:49:41.093Z,13.39
2017-08-14T07:50:38.315Z,13.40
2017-08-14T07:51:35.560Z,13.41
2017-08-14T07:52:32.809Z,13.45
2017-08-14T07:53:30.064Z,13.46
2017-08-14T07:54:27.276Z,13.48
2017-08-14T07:55:24.520Z,13.50
2017-08-14T07:56:21.757Z,13.51
2017-08-14T07:57:19.000Z,13.52
2017-08-14T07:58:16.241Z,13.54
2017-08-14T07:59:13.489Z,13.55
2017-08-14T08:00:10.800Z,13.56
2017-08-14T08:01:08.045Z,13.58
2017-08-14T08:02:05.260Z,13.59
2017-08-14T08:03:02.540Z,13.62
2017-08-14T08:03:59.764Z,13.65
2017-08-14T08:04:57.014Z,13.67
2017-08-14T08:05:54.242Z,13.68
2017-08-14T08:06:51.523Z,13.69
2017-08-14T08:07:48.845Z,13.71
2017-08-14T08:08:46.085Z,13.73
2017-08-14T08:09:43.969Z,13.74
2017-08-14T08:10:41.220Z,13.75
2017-08-14T08:11:38.440Z,13.78
2017-08-14T08:12:35.710Z,13.79
2017-08-14T08:13:32.945Z,13.80
2017-08-14T08:14:30.193Z,13.82
2017-08-14T08:15:27.414Z,13.82
2017-08-14T08:16:24.694Z,13.86
2017-08-14T08:17:21.912Z,13.87
2017-08-14T08:18:19.176Z,13.87
2017-08-14T08:19:16.384Z,13.90
2017-08-14T08:20:13.621Z,13.91
2017-08-14T08:21:10.841Z,13.94
2017-08-14T08:22:08.073Z,13.96
2017-08-14T08:23:05.315Z,13.97
2017-08-14T08:24:02.567Z,13.99
2017-08-14T08:24:59.797Z,14.01
2017-08-14T08:25:57.041Z,14.03
2017-08-14T08:26:54.271Z,14.05
2017-08-14T08:27:51.508Z,14.07
2017-08-14T08:28:48.736Z,14.09
2017-08-14T08:29:45.968Z,14.11
2017-08-14T08:30:43.192Z,14.13
2017-08-14T08:31:40.436Z,14.16
2017-08-14T08:32:37.652Z,14.18
2017-08-14T08:33:34.904Z,14.20
2017-08-14T08:34:32.112Z,14.21
2017-08-14T08:35:29.366Z,14.24
2017-08-14T08:36:26.596Z,14.26
2017-08-14T08:37:23.829Z,14.28
2017-08-14T08:38:21.043Z,14.31
2017-08-14T08:39:18.296Z,14.34
2017-08-14T08:40:15.524Z,14.36
2017-08-14T08:41:12.773Z,14.38
2017-08-14T08:42:09.988Z,14.40
2017-08-14T08:43:07.240Z,14.45
2017-08-14T08:44:04.493Z,14.44
2017-08-14T08:45:01.731Z,14.49
2017-08-14T08:45:58.956Z,14.50
2017-08-14T08:46:56.192Z,14.53
2017-08-14T08:47:53.404Z,14.54
2017-08-14T08:48:50.661Z,14.59
2017-08-14T08:49:47.873Z,14.61
2017-08-14T08:50:45.120Z,14.65
2017-08-14T08:51:42.332Z,14.66
2017-08-14T08:52:39.588Z,14.68
2017-08-14T08:53:36.821Z,14.70
2017-08-14T08:54:34.060Z,14.74
2017-08-14T08:55:31.536Z,14.77
2017-08-14T08:56:28.765Z,14.80
2017-08-14T08:57:25.972Z,14.82
2017-08-14T08:58:23.215Z,14.86
2017-08-14T08:59:20.462Z,14.88
2017-08-14T09:00:17.692Z,14.90
2017-08-14T09:01:14.914Z,14.92
2017-08-14T09:02:12.157Z,14.95
2017-08-14T09:03:09.376Z,14.97
2017-08-14T09:04:06.645Z,15.01
2017-08-14T09:05:03.885Z,15.05
2017-08-14T09:06:01.145Z,15.06
2017-08-14T09:06:58.356Z,15.10
2017-08-14T09:07:55.593Z,15.12
2017-08-14T09:08:52.807Z,15.15
2017-08-14T09:09:50.056Z,15.18
2017-08-14T09:10:47.284Z,15.21
2017-08-14T09:11:44.507Z,15.23
2017-08-14T09:12:41.737Z,15.28
2017-08-14T09:13:38.993Z,15.30
2017-08-14T09:14:36.250Z,15.34
2017-08-14T09:15:33.496Z,15.36
2017-08-14T09:16:30.704Z,15.39
2017-08-14T09:17:28.188Z,15.42
2017-08-14T09:18:25.420Z,15.47
2017-08-14T09:19:22.663Z,15.48
2017-08-14T09:20:19.900Z,15.51
2017-08-14T09:21:17.136Z,15.54
2017-08-14T09:22:14.357Z,15.56
2017-08-14T09:23:11.596Z,15.58
2017-08-14T09:24:08.813Z,15.62
2017-08-14T09:25:06.067Z,15.63
2017-08-14T09:26:03.272Z,15.67
2017-08-14T09:27:00.512Z,15.72
2017-08-14T09:27:57.751Z,15.73
2017-08-14T09:28:54.989Z,15.77
2017-08-14T09:29:52.269Z,15.80
2017-08-14T09:30:49.513Z,15.81
2017-08-14T09:31:46.716Z,15.84
2017-08-14T09:32:43.957Z,15.87
2017-08-14T09:33:41.168Z,15.89
2017-08-14T09:34:38.415Z,15.93
2017-08-14T09:35:35.649Z,15.95
2017-08-14T09:36:32.897Z,15.98
2017-08-14T09:37:30.117Z,16.01
2017-08-14T09:38:27.357Z,16.02
2017-08-14T09:39:24.580Z,16.07
2017-08-14T09:40:21.832Z,16.09
2017-08-14T09:41:19.049Z,16.12
2017-08-14T09:42:16.292Z,16.14
2017-08-14T09:43:13.522Z,16.18
2017-08-14T09:44:10.777Z,16.20
2017-08-14T09:45:08.034Z,16.22
2017-08-14T09:46:05.289Z,16.25
2017-08-14T09:47:02.521Z,16.27
2017-08-14T09:47:59.757Z,16.32
2017-08-14T09:48:57.024Z,16.34
2017-08-14T09:49:54.269Z,16.37
2017-08-14T09:50:51.580Z,16.38
2017-08-14T09:51:48.821Z,16.42
2017-08-14T09:52:46.034Z,16.46
2017-08-14T09:53:43.272Z,16.48
2017-08-14T09:54:40.492Z,16.50
2017-08-14T09:55:37.740Z,16.53
2017-08-14T09:56:35.008Z,16.56
2017-08-14T09:57:32.253Z,16.58
2017-08-14T09:58:29.464Z,16.62
2017-08-14T09:59:26.699Z,16.65
2017-08-14T10:00:23.920Z,16.68
2017-08-14T10:01:21.180Z,16.71
2017-08-14T10:02:18.453Z,16.74
2017-08-14T10:03:15.699Z,16.76
2017-08-14T10:04:12.928Z,16.79
2017-08-14T10:05:10.164Z,16.83
2017-08-14T10:06:07.418Z,16.86
2017-08-14T10:07:04.677Z,16.88
2017-08-14T10:08:01.896Z,16.90
2017-08-14T10:08:59.124Z,16.93
2017-08-14T10:09:56.325Z,16.97
2017-08-14T10:10:53.580Z,16.98
2017-08-14T10:11:50.808Z,17.00
2017-08-14T10:12:48.060Z,17.05
2017-08-14T10:13:45.289Z,17.09
2017-08-14T10:14:42.552Z,17.10
2017-08-14T10:15:39.777Z,17.13
2017-08-14T10:16:37.062Z,17.15
2017-08-14T10:17:34.291Z,17.18
2017-08-14T10:18:31.539Z,17.21
2017-08-14T10:19:28.757Z,17.25
2017-08-14T10:20:26.018Z,17.28
2017-08-14T10:21:23.258Z,17.30
2017-08-14T10:22:20.498Z,17.34
2017-08-14T10:23:18.327Z,17.35
2017-08-14T10:24:15.641Z,17.39
2017-08-14T10:25:12.860Z,17.41
2017-08-14T10:26:10.088Z,17.44
2017-08-14T10:27:07.321Z,17.47
2017-08-14T10:28:04.558Z,17.50
2017-08-14T10:29:01.804Z,17.53
2017-08-14T10:29:59.039Z,17.55
2017-08-14T10:30:56.269Z,17.58
2017-08-14T10:31:53.520Z,17.59
2017-08-14T10:32:50.729Z,17.63
2017-08-14T10:33:47.964Z,17.65
2017-08-14T10:34:45.186Z,17.68
2017-08-14T10:35:42.420Z,17.70
2017-08-14T10:36:39.668Z,17.74
2017-08-14T10:37:36.919Z,17.78
2017-08-14T10:38:34.140Z,17.79
2017-08-14T10:39:31.401Z,17.82
2017-08-14T10:40:28.635Z,17.85
2017-08-14T10:41:25.880Z,17.87
2017-08-14T10:42:23.125Z,17.90
2017-08-14T10:43:20.380Z,17.95
2017-08-14T10:44:17.617Z,17.98
2017-08-14T10:45:14.864Z,18.00
2017-08-14T10:46:12.086Z,18.03
2017-08-14T10:47:09.369Z,18.06
2017-08-14T10:48:06.576Z,18.07
2017-08-14T10:49:03.812Z,18.09
2017-08-14T10:50:01.049Z,18.12
2017-08-14T10:50:58.284Z,18.15
2017-08-14T10:51:55.541Z,18.17
2017-08-14T10:52:52.777Z,18.20
2017-08-14T10:53:49.992Z,18.22
2017-08-14T10:54:47.233Z,18.25
2017-08-14T10:55:44.451Z,18.28
2017-08-14T10:56:41.693Z,18.30
2017-08-14T10:57:38.940Z,18.34
2017-08-14T10:58:36.216Z,18.36
2017-08-14T10:59:33.580Z,18.40
2017-08-14T11:00:30.825Z,18.41
2017-08-14T11:01:28.040Z,18.46
2017-08-14T11:02:25.304Z,18.48
2017-08-14T11:03:22.549Z,18.51
2017-08-14T11:04:19.801Z,18.53
2017-08-14T11:05:17.070Z,18.57
2017-08-14T11:06:14.315Z,18.59
2017-08-14T11:07:11.865Z,18.62
2017-08-14T11:08:09.148Z,18.65
2017-08-14T11:09:06.373Z,18.66
2017-08-14T11:10:03.618Z,18.68
2017-08-14T11:11:00.878Z,18.71
2017-08-14T11:11:58.112Z,18.73
2017-08-14T11:12:55.370Z,18.75
2017-08-14T11:13:52.624Z,18.78
2017-08-14T11:14:49.859Z,18.80
2017-08-14T11:15:47.140Z,18.82
2017-08-14T11:16:44.384Z,18.85
2017-08-14T11:17:41.648Z,18.87
2017-08-14T11:18:38.879Z,18.90
2017-08-14T11:19:36.141Z,18.92
2017-08-14T11:20:33.388Z,18.94
2017-08-14T11:21:30.636Z,18.97
2017-08-14T11:22:27.888Z,18.99
2017-08-14T11:23:25.132Z,19.01
2017-08-14T11:24:22.402Z,19.04
2017-08-14T11:25:19.684Z,19.07
2017-08-14T11:26:16.905Z,19.08
2017-08-14T11:27:14.149Z,19.11
2017-08-14T11:28:11.384Z,19.14
2017-08-14T11:29:08.685Z,19.15
2017-08-14T11:30:05.964Z,19.17
2017-08-14T11:31:03.200Z,19.23
2017-08-14T11:32:00.440Z,19.24
2017-08-14T11:32:57.692Z,19.26
2017-08-14T11:33:54.900Z,19.28
2017-08-14T11:34:52.385Z,19.29
2017-08-14T11:35:49.606Z,19.32
2017-08-14T11:36:46.845Z,19.34
2017-08-14T11:37:44.066Z,19.36
2017-08-14T11:38:41.317Z,19.38
2017-08-14T11:39:38.536Z,19.41
2017-08-14T11:40:35.769Z,19.43
2017-08-14T11:41:33.019Z,19.46
2017-08-14T11:42:30.256Z,19.46
2017-08-14T11:43:27.517Z,19.50
2017-08-14T11:44:24.756Z,19.50
2017-08-14T11:45:22.024Z,19.52
2017-08-14T11:46:19.268Z,19.54
2017-08-14T11:47:16.487Z,19.55
2017-08-14T11:48:13.751Z,19.58
2017-08-14T11:49:10.986Z,19.59
2017-08-14T11:50:08.221Z,19.60
2017-08-14T11:51:05.431Z,19.63
2017-08-14T11:52:02.684Z,19.67
2017-08-14T11:52:59.900Z,19.68
2017-08-14T11:53:57.165Z,19.69
2017-08-14T11:54:54.380Z,19.72
2017-08-14T11:55:51.628Z,19.74
2017-08-14T11:56:48.852Z,19.75
2017-08-14T11:57:46.096Z,19.77
2017-08-14T11:58:43.341Z,19.79
2017-08-14T11:59:40.583Z,19.82
2017-08-14T12:01:09.201Z,19.83
2017-08-14T12:02:06.433Z,19.87
2017-08-14T12:03:03.664Z,19.89
2017-08-14T12:04:00.918Z,19.93
2017-08-14T12:04:58.160Z,19.95
2017-08-14T12:05:55.402Z,19.96
2017-08-14T12:06:52.656Z,19.99
2017-08-14T12:07:49.917Z,20.02
2017-08-14T12:08:47.204Z,20.03
2017-08-14T12:09:44.429Z,20.05
2017-08-14T12:10:41.676Z,20.06
2017-08-14T12:11:38.924Z,20.08
2017-08-14T12:12:36.164Z,20.08
2017-08-14T12:13:33.400Z,20.09
2017-08-14T12:14:30.685Z,20.12
2017-08-14T12:15:27.926Z,20.14
2017-08-14T12:16:25.177Z,20.15
2017-08-14T12:17:22.405Z,20.17